EBAW

Antwerp International (Deurne) Airport

Antwerp, Belgium
METAR EBAW 221750Z 31007KT CAVOK 21/13 Q1010 NOSIG
Observed Flight Rules
Apr-22 @ 17:50 UTC (24 minutes ago) Visual Flight Rules
Wind Visibility Clouds
310° at 7 knots 10,000+ meters
  • Clear skies
Temperatures Readings
Current 21°C / 70°F
Dewpoint 13°C / 55°F
Humidity 60%
Altimeter 29.82" Hg
Pressure 1010 hPa
Elevation 14
METAR EBAW 221750Z 31007KT CAVOK 21/13 Q1010 NOSIG
Observed Flight Rules
Apr-22 @ 17:50 UTC
(24 minutes ago)
VFR
Wind Visibility
310° at 7 knots 10,000+ meters
Clouds
  • Clear skies
Temperature Dewpoint
21°C / 70°F 13°C / 55°F
Humidity Altimeter Pressure
60% 29.82" Hg 1010 hPa